Aviation Digital Data Service (ADDS)

Output produced by METARs form (1031 UTC 07 December 2022)
found at http://www.aviationweather.gov/metar/data/
 
METAR text: KBJC 071015Z AUTO 00000KT 10SM CLR 01/M10 A3007 RMK AO2
Conditions at: KBJC (BROOMFIELD/JEFFC, CO, US) observed 1015 UTC 07 December 2022
Temperature: 1.0°C (34°F)
Dewpoint: -10.0°C (14°F) [RH = 44%]
Pressure (altimeter): 30.07 inches Hg (1018.4 mb)
Winds: calm
Visibility: 10 or more miles (16+ km)
Ceiling: at least 12,000 feet AGL
Clouds: sky clear below 12,000 feet AGL
Weather: automated observation with no human augmentation;
there may or may not be significant weather present at this time

METAR text: KBJC 070955Z AUTO 13003KT 10SM CLR 01/M10 A3007 RMK AO2
Conditions at: KBJC (BROOMFIELD/JEFFC, CO, US) observed 0955 UTC 07 December 2022
Temperature: 1.0°C (34°F)
Dewpoint: -10.0°C (14°F) [RH = 44%]
Pressure (altimeter): 30.07 inches Hg (1018.4 mb)
Winds: from the SE (130 degrees) at 3 MPH (3 knots; 1.5 m/s)
Visibility: 10 or more miles (16+ km)
Ceiling: at least 12,000 feet AGL
Clouds: sky clear below 12,000 feet AGL
Weather: automated observation with no human augmentation;
there may or may not be significant weather present at this time

METAR text: KBJC 070935Z AUTO 11008KT 10SM CLR 01/M10 A3007 RMK AO2
Conditions at: KBJC (BROOMFIELD/JEFFC, CO, US) observed 0935 UTC 07 December 2022
Temperature: 1.0°C (34°F)
Dewpoint: -10.0°C (14°F) [RH = 44%]
Pressure (altimeter): 30.07 inches Hg (1018.4 mb)
Winds: from the ESE (110 degrees) at 9 MPH (8 knots; 4.1 m/s)
Visibility: 10 or more miles (16+ km)
Ceiling: at least 12,000 feet AGL
Clouds: sky clear below 12,000 feet AGL
Weather: automated observation with no human augmentation;
there may or may not be significant weather present at this time

Forecast for: KBJC (BROOMFIELD/JEFFC, CO, US)
Text: KBJC 070530Z 0706/0806 VRB05KT P6SM FEW140
Forecast period: 0600 to 1100 UTC 07 December 2022
Forecast type: FROM: standard forecast or significant change
Winds: variable direction winds at 6 MPH (5 knots; 2.6 m/s)
Visibility: 6 or more miles (10+ km)
Ceiling: at least 12,000 feet AGL
Clouds: few clouds at 14000 feet AGL
Weather: no significant weather forecast for this period
Text: FM071100 31006KT P6SM FEW140
Forecast period: 1100 to 1800 UTC 07 December 2022
Forecast type: FROM: standard forecast or significant change
Winds: from the NW (310 degrees) at 7 MPH (6 knots; 3.1 m/s)
Visibility: 6 or more miles (10+ km)
Ceiling: at least 12,000 feet AGL
Clouds: few clouds at 14000 feet AGL
Weather: no significant weather forecast for this period
Text: FM071800 10007KT P6SM FEW100 SCT180
Forecast period: 1800 to 2200 UTC 07 December 2022
Forecast type: FROM: standard forecast or significant change
Winds: from the E (100 degrees) at 8 MPH (7 knots; 3.6 m/s)
Visibility: 6 or more miles (10+ km)
Ceiling: at least 12,000 feet AGL
Clouds: few clouds at 10000 feet AGL
scattered clouds at 18000 feet AGL
Weather: no significant weather forecast for this period
Text: FM072200 VRB06KT P6SM SCT100 SCT180
Forecast period: 2200 UTC 07 December 2022 to 0000 UTC 08 December 2022
Forecast type: FROM: standard forecast or significant change
Winds: variable direction winds at 7 MPH (6 knots; 3.1 m/s)
Visibility: 6 or more miles (10+ km)
Ceiling: at least 12,000 feet AGL
Clouds: scattered clouds at 10000 feet AGL
scattered clouds at 18000 feet AGL
Weather: no significant weather forecast for this period
Text: FM080000 34008KT P6SM SCT080 BKN120
Forecast period: 0000 to 0600 UTC 08 December 2022
Forecast type: FROM: standard forecast or significant change
Winds: from the NNW (340 degrees) at 9 MPH (8 knots; 4.1 m/s)
Visibility: 6 or more miles (10+ km)
Ceiling: 12000 feet AGL
Clouds: scattered clouds at 8000 feet AGL
broken clouds at 12000 feet AGL
Weather: no significant weather forecast for this period